sensor_id;sensor_type;location;lat;lon;timestamp;P1;durP1;ratioP1;P2;durP2;ratioP2
68718;SDS011;55696;52.138;5.444;2023-04-29T00:00:09;36.65;;;17.35;;
68718;SDS011;55696;52.138;5.444;2023-04-29T00:02:37;31.77;;;14.80;;
68718;SDS011;55696;52.138;5.444;2023-04-29T00:05:04;38.90;;;16.55;;
68718;SDS011;55696;52.138;5.444;2023-04-29T00:07:32;36.57;;;15.10;;
68718;SDS011;55696;52.138;5.444;2023-04-29T00:09:59;39.92;;;17.63;;
68718;SDS011;55696;52.138;5.444;2023-04-29T00:12:25;34.10;;;16.73;;
68718;SDS011;55696;52.138;5.444;2023-04-29T00:14:53;36.13;;;16.98;;
68718;SDS011;55696;52.138;5.444;2023-04-29T00:17:20;38.40;;;17.00;;
68718;SDS011;55696;52.138;5.444;2023-04-29T00:19:47;30.93;;;15.10;;
68718;SDS011;55696;52.138;5.444;2023-04-29T00:22:14;35.28;;;16.05;;
68718;SDS011;55696;52.138;5.444;2023-04-29T00:24:40;35.08;;;16.15;;
68718;SDS011;55696;52.138;5.444;2023-04-29T00:27:07;38.22;;;16.60;;
68718;SDS011;55696;52.138;5.444;2023-04-29T00:29:34;37.15;;;16.02;;
68718;SDS011;55696;52.138;5.444;2023-04-29T00:32:01;40.87;;;16.90;;
68718;SDS011;55696;52.138;5.444;2023-04-29T00:34:28;33.63;;;16.40;;
68718;SDS011;55696;52.138;5.444;2023-04-29T00:36:55;35.10;;;16.35;;
68718;SDS011;55696;52.138;5.444;2023-04-29T00:39:22;31.40;;;14.77;;
68718;SDS011;55696;52.138;5.444;2023-04-29T00:41:49;34.55;;;16.40;;
68718;SDS011;55696;52.138;5.444;2023-04-29T00:44:15;35.63;;;15.67;;
68718;SDS011;55696;52.138;5.444;2023-04-29T00:46:43;28.17;;;14.15;;
68718;SDS011;55696;52.138;5.444;2023-04-29T00:49:10;33.58;;;15.57;;
68718;SDS011;55696;52.138;5.444;2023-04-29T00:51:40;32.55;;;15.95;;
68718;SDS011;55696;52.138;5.444;2023-04-29T00:54:07;29.35;;;15.23;;
68718;SDS011;55696;52.138;5.444;2023-04-29T00:56:36;37.57;;;15.97;;
68718;SDS011;55696;52.138;5.444;2023-04-29T00:59:04;30.58;;;14.57;;
68718;SDS011;55696;52.138;5.444;2023-04-29T01:01:32;28.55;;;13.90;;
68718;SDS011;55696;52.138;5.444;2023-04-29T01:04:00;34.42;;;15.95;;
68718;SDS011;55696;52.138;5.444;2023-04-29T01:15:04;27.70;;;13.82;;
68718;SDS011;55696;52.138;5.444;2023-04-29T01:17:55;28.67;;;13.57;;
68718;SDS011;55696;52.138;5.444;2023-04-29T01:20:26;30.42;;;14.23;;
68718;SDS011;55696;52.138;5.444;2023-04-29T01:22:54;31.83;;;15.23;;
68718;SDS011;55696;52.138;5.444;2023-04-29T01:25:21;25.73;;;13.02;;
68718;SDS011;55696;52.138;5.444;2023-04-29T01:28:28;27.27;;;13.43;;
68718;SDS011;55696;52.138;5.444;2023-04-29T01:31:15;32.63;;;16.20;;
68718;SDS011;55696;52.138;5.444;2023-04-29T01:33:53;31.13;;;15.02;;
68718;SDS011;55696;52.138;5.444;2023-04-29T01:36:55;31.73;;;15.73;;
68718;SDS011;55696;52.138;5.444;2023-04-29T01:44:39;26.90;;;14.68;;
68718;SDS011;55696;52.138;5.444;2023-04-29T01:47:08;32.10;;;15.82;;
68718;SDS011;55696;52.138;5.444;2023-04-29T01:49:42;32.03;;;14.30;;
68718;SDS011;55696;52.138;5.444;2023-04-29T01:52:12;35.33;;;15.75;;
68718;SDS011;55696;52.138;5.444;2023-04-29T01:54:41;30.63;;;14.40;;
68718;SDS011;55696;52.138;5.444;2023-04-29T01:57:08;30.55;;;14.90;;
68718;SDS011;55696;52.138;5.444;2023-04-29T01:59:47;26.88;;;12.55;;
68718;SDS011;55696;52.138;5.444;2023-04-29T02:02:34;30.17;;;14.77;;
68718;SDS011;55696;52.138;5.444;2023-04-29T02:05:14;30.20;;;14.45;;
68718;SDS011;55696;52.138;5.444;2023-04-29T02:07:48;31.30;;;13.82;;
68718;SDS011;55696;52.138;5.444;2023-04-29T02:10:15;30.85;;;13.35;;
68718;SDS011;55696;52.138;5.444;2023-04-29T02:12:43;26.95;;;13.68;;
68718;SDS011;55696;52.138;5.444;2023-04-29T02:15:11;32.13;;;15.23;;
68718;SDS011;55696;52.138;5.444;2023-04-29T02:17:38;28.55;;;14.80;;
68718;SDS011;55696;52.138;5.444;2023-04-29T02:20:05;28.27;;;12.48;;
68718;SDS011;55696;52.138;5.444;2023-04-29T02:22:33;33.30;;;14.77;;
68718;SDS011;55696;52.138;5.444;2023-04-29T02:25:01;30.60;;;14.18;;
68718;SDS011;55696;52.138;5.444;2023-04-29T02:27:29;27.87;;;13.43;;
68718;SDS011;55696;52.138;5.444;2023-04-29T02:29:56;26.67;;;13.70;;
68718;SDS011;55696;52.138;5.444;2023-04-29T02:32:24;25.90;;;12.15;;
68718;SDS011;55696;52.138;5.444;2023-04-29T02:34:50;24.15;;;12.68;;
68718;SDS011;55696;52.138;5.444;2023-04-29T02:37:18;24.40;;;12.85;;
68718;SDS011;55696;52.138;5.444;2023-04-29T02:39:44;28.63;;;12.37;;
68718;SDS011;55696;52.138;5.444;2023-04-29T02:42:12;29.58;;;12.90;;
68718;SDS011;55696;52.138;5.444;2023-04-29T02:44:39;27.65;;;12.38;;
68718;SDS011;55696;52.138;5.444;2023-04-29T02:47:07;19.08;;;11.00;;
68718;SDS011;55696;52.138;5.444;2023-04-29T02:49:34;29.50;;;13.25;;
68718;SDS011;55696;52.138;5.444;2023-04-29T02:52:01;22.50;;;11.23;;
68718;SDS011;55696;52.138;5.444;2023-04-29T02:54:28;35.97;;;12.35;;
68718;SDS011;55696;52.138;5.444;2023-04-29T02:56:54;30.42;;;11.80;;
68718;SDS011;55696;52.138;5.444;2023-04-29T02:59:21;26.58;;;11.57;;
68718;SDS011;55696;52.138;5.444;2023-04-29T03:01:48;25.73;;;12.38;;
68718;SDS011;55696;52.138;5.444;2023-04-29T03:04:15;26.37;;;12.33;;
68718;SDS011;55696;52.138;5.444;2023-04-29T03:06:42;22.60;;;11.15;;
68718;SDS011;55696;52.138;5.444;2023-04-29T03:09:10;25.38;;;11.63;;
68718;SDS011;55696;52.138;5.444;2023-04-29T03:11:38;25.52;;;12.15;;
68718;SDS011;55696;52.138;5.444;2023-04-29T03:14:05;23.45;;;12.00;;
68718;SDS011;55696;52.138;5.444;2023-04-29T03:16:32;26.77;;;11.73;;
68718;SDS011;55696;52.138;5.444;2023-04-29T03:18:59;24.55;;;13.05;;
68718;SDS011;55696;52.138;5.444;2023-04-29T03:21:27;21.92;;;12.48;;
68718;SDS011;55696;52.138;5.444;2023-04-29T03:23:55;25.23;;;11.57;;
68718;SDS011;55696;52.138;5.444;2023-04-29T03:26:28;23.10;;;12.20;;
68718;SDS011;55696;52.138;5.444;2023-04-29T03:28:55;23.63;;;11.90;;
68718;SDS011;55696;52.138;5.444;2023-04-29T03:31:25;23.00;;;11.95;;
68718;SDS011;55696;52.138;5.444;2023-04-29T03:33:52;23.17;;;11.65;;
68718;SDS011;55696;52.138;5.444;2023-04-29T03:36:20;26.23;;;11.40;;
68718;SDS011;55696;52.138;5.444;2023-04-29T03:38:57;29.55;;;12.23;;
68718;SDS011;55696;52.138;5.444;2023-04-29T03:41:25;21.53;;;11.80;;
68718;SDS011;55696;52.138;5.444;2023-04-29T03:43:52;21.00;;;11.35;;
68718;SDS011;55696;52.138;5.444;2023-04-29T03:46:20;24.85;;;12.45;;
68718;SDS011;55696;52.138;5.444;2023-04-29T03:48:46;23.27;;;11.70;;
68718;SDS011;55696;52.138;5.444;2023-04-29T03:51:13;22.38;;;12.45;;
68718;SDS011;55696;52.138;5.444;2023-04-29T03:53:40;23.83;;;12.90;;
68718;SDS011;55696;52.138;5.444;2023-04-29T03:56:07;22.40;;;13.25;;
68718;SDS011;55696;52.138;5.444;2023-04-29T03:58:35;25.02;;;12.95;;
68718;SDS011;55696;52.138;5.444;2023-04-29T04:01:02;26.65;;;13.77;;
68718;SDS011;55696;52.138;5.444;2023-04-29T04:03:36;26.17;;;12.40;;
68718;SDS011;55696;52.138;5.444;2023-04-29T04:06:03;25.70;;;13.07;;
68718;SDS011;55696;52.138;5.444;2023-04-29T04:08:30;24.83;;;13.52;;
68718;SDS011;55696;52.138;5.444;2023-04-29T04:11:05;24.15;;;13.23;;
68718;SDS011;55696;52.138;5.444;2023-04-29T04:13:35;23.83;;;12.48;;
68718;SDS011;55696;52.138;5.444;2023-04-29T04:16:03;23.15;;;13.05;;
68718;SDS011;55696;52.138;5.444;2023-04-29T04:18:30;22.23;;;11.67;;
68718;SDS011;55696;52.138;5.444;2023-04-29T04:20:57;22.38;;;11.65;;
68718;SDS011;55696;52.138;5.444;2023-04-29T04:23:30;20.70;;;11.63;;
68718;SDS011;55696;52.138;5.444;2023-04-29T04:25:57;26.60;;;12.63;;
68718;SDS011;55696;52.138;5.444;2023-04-29T04:28:49;24.55;;;12.20;;
68718;SDS011;55696;52.138;5.444;2023-04-29T04:31:24;24.17;;;12.17;;
68718;SDS011;55696;52.138;5.444;2023-04-29T04:33:51;21.67;;;12.15;;
68718;SDS011;55696;52.138;5.444;2023-04-29T04:36:18;20.52;;;11.90;;
68718;SDS011;55696;52.138;5.444;2023-04-29T04:38:46;24.40;;;12.02;;
68718;SDS011;55696;52.138;5.444;2023-04-29T04:41:13;21.13;;;11.45;;
68718;SDS011;55696;52.138;5.444;2023-04-29T04:43:42;20.00;;;12.00;;
68718;SDS011;55696;52.138;5.444;2023-04-29T04:46:22;19.30;;;11.15;;
68718;SDS011;55696;52.138;5.444;2023-04-29T04:49:07;18.10;;;10.70;;
68718;SDS011;55696;52.138;5.444;2023-04-29T04:51:42;18.20;;;10.98;;
68718;SDS011;55696;52.138;5.444;2023-04-29T04:54:10;24.73;;;10.63;;
68718;SDS011;55696;52.138;5.444;2023-04-29T04:56:37;22.20;;;10.77;;
68718;SDS011;55696;52.138;5.444;2023-04-29T04:59:05;19.45;;;10.70;;
68718;SDS011;55696;52.138;5.444;2023-04-29T05:01:35;18.63;;;11.05;;
68718;SDS011;55696;52.138;5.444;2023-04-29T05:04:02;20.25;;;11.23;;
68718;SDS011;55696;52.138;5.444;2023-04-29T05:06:29;22.95;;;10.45;;
68718;SDS011;55696;52.138;5.444;2023-04-29T05:08:56;16.70;;;11.43;;
68718;SDS011;55696;52.138;5.444;2023-04-29T05:11:23;18.92;;;11.63;;
68718;SDS011;55696;52.138;5.444;2023-04-29T05:14:06;24.27;;;11.98;;
68718;SDS011;55696;52.138;5.444;2023-04-29T05:16:33;21.73;;;12.25;;
68718;SDS011;55696;52.138;5.444;2023-04-29T05:19:00;18.98;;;11.55;;
68718;SDS011;55696;52.138;5.444;2023-04-29T05:21:30;23.70;;;10.50;;
68718;SDS011;55696;52.138;5.444;2023-04-29T05:23:58;19.92;;;10.55;;
68718;SDS011;55696;52.138;5.444;2023-04-29T05:26:25;22.50;;;12.07;;
68718;SDS011;55696;52.138;5.444;2023-04-29T05:28:55;21.08;;;11.57;;
68718;SDS011;55696;52.138;5.444;2023-04-29T05:31:22;22.70;;;10.82;;
68718;SDS011;55696;52.138;5.444;2023-04-29T05:33:49;21.60;;;11.17;;
68718;SDS011;55696;52.138;5.444;2023-04-29T05:36:16;24.38;;;10.75;;
68718;SDS011;55696;52.138;5.444;2023-04-29T05:38:43;20.10;;;10.43;;
68718;SDS011;55696;52.138;5.444;2023-04-29T05:41:10;20.85;;;10.57;;
68718;SDS011;55696;52.138;5.444;2023-04-29T05:44:10;24.45;;;11.07;;
68718;SDS011;55696;52.138;5.444;2023-04-29T05:46:36;19.80;;;10.87;;
68718;SDS011;55696;52.138;5.444;2023-04-29T05:49:03;23.23;;;11.25;;
68718;SDS011;55696;52.138;5.444;2023-04-29T05:51:30;24.00;;;10.45;;
68718;SDS011;55696;52.138;5.444;2023-04-29T05:53:57;20.70;;;11.15;;
68718;SDS011;55696;52.138;5.444;2023-04-29T05:56:25;22.13;;;12.55;;
68718;SDS011;55696;52.138;5.444;2023-04-29T05:58:54;21.00;;;11.53;;
68718;SDS011;55696;52.138;5.444;2023-04-29T06:01:20;21.85;;;11.30;;
68718;SDS011;55696;52.138;5.444;2023-04-29T06:03:47;21.40;;;10.82;;
68718;SDS011;55696;52.138;5.444;2023-04-29T06:06:33;24.42;;;11.43;;
68718;SDS011;55696;52.138;5.444;2023-04-29T06:09:26;23.50;;;11.55;;
68718;SDS011;55696;52.138;5.444;2023-04-29T06:11:57;21.40;;;11.27;;
68718;SDS011;55696;52.138;5.444;2023-04-29T06:14:24;21.23;;;10.82;;
68718;SDS011;55696;52.138;5.444;2023-04-29T06:16:51;20.65;;;10.57;;
68718;SDS011;55696;52.138;5.444;2023-04-29T06:19:18;21.48;;;11.20;;
68718;SDS011;55696;52.138;5.444;2023-04-29T06:21:47;22.50;;;9.90;;
68718;SDS011;55696;52.138;5.444;2023-04-29T06:24:14;20.77;;;11.07;;
68718;SDS011;55696;52.138;5.444;2023-04-29T06:26:41;25.13;;;10.93;;
68718;SDS011;55696;52.138;5.444;2023-04-29T06:29:09;20.13;;;10.30;;
68718;SDS011;55696;52.138;5.444;2023-04-29T06:31:35;21.45;;;10.45;;
68718;SDS011;55696;52.138;5.444;2023-04-29T06:34:03;24.23;;;10.77;;
68718;SDS011;55696;52.138;5.444;2023-04-29T06:36:33;26.90;;;11.43;;
68718;SDS011;55696;52.138;5.444;2023-04-29T06:39:19;23.15;;;10.52;;
68718;SDS011;55696;52.138;5.444;2023-04-29T06:42:09;19.77;;;10.50;;
68718;SDS011;55696;52.138;5.444;2023-04-29T06:45:04;22.05;;;11.00;;
68718;SDS011;55696;52.138;5.444;2023-04-29T06:47:40;26.65;;;10.55;;
68718;SDS011;55696;52.138;5.444;2023-04-29T06:50:11;21.43;;;10.77;;
68718;SDS011;55696;52.138;5.444;2023-04-29T06:52:38;22.60;;;11.02;;
68718;SDS011;55696;52.138;5.444;2023-04-29T06:55:05;23.35;;;10.02;;
68718;SDS011;55696;52.138;5.444;2023-04-29T06:57:32;28.35;;;11.23;;
68718;SDS011;55696;52.138;5.444;2023-04-29T06:59:58;24.17;;;11.20;;
68718;SDS011;55696;52.138;5.444;2023-04-29T07:02:26;24.27;;;11.13;;
68718;SDS011;55696;52.138;5.444;2023-04-29T07:04:52;18.15;;;8.98;;
68718;SDS011;55696;52.138;5.444;2023-04-29T07:07:20;19.73;;;10.30;;
68718;SDS011;55696;52.138;5.444;2023-04-29T07:09:46;19.45;;;9.43;;
68718;SDS011;55696;52.138;5.444;2023-04-29T07:12:18;23.35;;;9.70;;
68718;SDS011;55696;52.138;5.444;2023-04-29T07:14:45;18.83;;;9.43;;
68718;SDS011;55696;52.138;5.444;2023-04-29T07:17:12;25.58;;;10.77;;
68718;SDS011;55696;52.138;5.444;2023-04-29T07:19:40;20.33;;;9.45;;
68718;SDS011;55696;52.138;5.444;2023-04-29T07:22:07;17.20;;;8.82;;
68718;SDS011;55696;52.138;5.444;2023-04-29T07:24:34;19.15;;;9.55;;
68718;SDS011;55696;52.138;5.444;2023-04-29T07:27:01;18.33;;;9.43;;
68718;SDS011;55696;52.138;5.444;2023-04-29T07:29:28;21.02;;;9.82;;
68718;SDS011;55696;52.138;5.444;2023-04-29T07:31:55;25.75;;;9.50;;
68718;SDS011;55696;52.138;5.444;2023-04-29T07:34:22;16.20;;;8.52;;
68718;SDS011;55696;52.138;5.444;2023-04-29T07:36:49;23.40;;;11.07;;
68718;SDS011;55696;52.138;5.444;2023-04-29T07:39:16;19.83;;;8.70;;
68718;SDS011;55696;52.138;5.444;2023-04-29T07:41:46;17.98;;;8.20;;
68718;SDS011;55696;52.138;5.444;2023-04-29T07:44:13;18.08;;;8.00;;
68718;SDS011;55696;52.138;5.444;2023-04-29T07:46:40;13.20;;;7.70;;
68718;SDS011;55696;52.138;5.444;2023-04-29T07:49:07;14.35;;;7.03;;
68718;SDS011;55696;52.138;5.444;2023-04-29T07:51:34;13.93;;;7.73;;
68718;SDS011;55696;52.138;5.444;2023-04-29T07:54:01;14.25;;;7.05;;
68718;SDS011;55696;52.138;5.444;2023-04-29T07:56:28;21.02;;;7.65;;
68718;SDS011;55696;52.138;5.444;2023-04-29T07:58:55;15.20;;;8.35;;
68718;SDS011;55696;52.138;5.444;2023-04-29T08:01:21;12.77;;;7.20;;
68718;SDS011;55696;52.138;5.444;2023-04-29T08:03:48;14.03;;;7.60;;
68718;SDS011;55696;52.138;5.444;2023-04-29T08:06:17;14.48;;;7.13;;
68718;SDS011;55696;52.138;5.444;2023-04-29T08:08:47;13.20;;;7.03;;
68718;SDS011;55696;52.138;5.444;2023-04-29T08:11:17;12.38;;;6.82;;
68718;SDS011;55696;52.138;5.444;2023-04-29T08:13:45;12.73;;;7.13;;
68718;SDS011;55696;52.138;5.444;2023-04-29T08:16:12;13.00;;;7.27;;
68718;SDS011;55696;52.138;5.444;2023-04-29T08:18:39;13.13;;;6.15;;
68718;SDS011;55696;52.138;5.444;2023-04-29T08:21:06;14.38;;;6.95;;
68718;SDS011;55696;52.138;5.444;2023-04-29T08:23:34;12.32;;;7.05;;
68718;SDS011;55696;52.138;5.444;2023-04-29T08:26:01;11.05;;;6.65;;
68718;SDS011;55696;52.138;5.444;2023-04-29T08:28:28;13.93;;;6.57;;
68718;SDS011;55696;52.138;5.444;2023-04-29T08:30:55;14.93;;;6.07;;
68718;SDS011;55696;52.138;5.444;2023-04-29T08:33:22;13.35;;;6.97;;
68718;SDS011;55696;52.138;5.444;2023-04-29T08:35:56;14.15;;;6.30;;
68718;SDS011;55696;52.138;5.444;2023-04-29T08:38:24;12.98;;;5.68;;
68718;SDS011;55696;52.138;5.444;2023-04-29T08:40:51;13.90;;;6.33;;
68718;SDS011;55696;52.138;5.444;2023-04-29T08:43:18;15.50;;;6.82;;
68718;SDS011;55696;52.138;5.444;2023-04-29T08:45:45;11.48;;;6.45;;
68718;SDS011;55696;52.138;5.444;2023-04-29T08:48:17;15.55;;;6.25;;
68718;SDS011;55696;52.138;5.444;2023-04-29T08:50:44;14.07;;;6.85;;
68718;SDS011;55696;52.138;5.444;2023-04-29T08:53:12;14.83;;;6.47;;
68718;SDS011;55696;52.138;5.444;2023-04-29T08:55:46;9.68;;;5.82;;
68718;SDS011;55696;52.138;5.444;2023-04-29T08:58:14;10.40;;;5.97;;
68718;SDS011;55696;52.138;5.444;2023-04-29T09:00:42;14.27;;;5.85;;
68718;SDS011;55696;52.138;5.444;2023-04-29T09:03:11;14.43;;;6.13;;
68718;SDS011;55696;52.138;5.444;2023-04-29T09:05:53;10.13;;;6.50;;
68718;SDS011;55696;52.138;5.444;2023-04-29T09:08:22;13.43;;;6.15;;
68718;SDS011;55696;52.138;5.444;2023-04-29T09:10:52;14.90;;;6.93;;
68718;SDS011;55696;52.138;5.444;2023-04-29T09:13:26;9.90;;;5.63;;
68718;SDS011;55696;52.138;5.444;2023-04-29T09:15:57;11.73;;;6.45;;
68718;SDS011;55696;52.138;5.444;2023-04-29T09:18:40;13.03;;;6.33;;
68718;SDS011;55696;52.138;5.444;2023-04-29T09:21:13;15.13;;;6.50;;
68718;SDS011;55696;52.138;5.444;2023-04-29T09:23:55;15.18;;;6.80;;
68718;SDS011;55696;52.138;5.444;2023-04-29T09:26:23;12.15;;;6.07;;
68718;SDS011;55696;52.138;5.444;2023-04-29T09:29:10;10.75;;;5.90;;
68718;SDS011;55696;52.138;5.444;2023-04-29T09:31:43;10.17;;;6.43;;
68718;SDS011;55696;52.138;5.444;2023-04-29T09:34:10;11.05;;;5.97;;
68718;SDS011;55696;52.138;5.444;2023-04-29T09:36:48;13.50;;;6.57;;
68718;SDS011;55696;52.138;5.444;2023-04-29T09:39:17;11.40;;;6.60;;
68718;SDS011;55696;52.138;5.444;2023-04-29T09:44:18;13.77;;;6.27;;
68718;SDS011;55696;52.138;5.444;2023-04-29T09:46:56;12.32;;;5.95;;
68718;SDS011;55696;52.138;5.444;2023-04-29T09:49:28;10.30;;;5.75;;
68718;SDS011;55696;52.138;5.444;2023-04-29T09:52:05;10.85;;;6.40;;
68718;SDS011;55696;52.138;5.444;2023-04-29T09:54:36;14.20;;;6.55;;
68718;SDS011;55696;52.138;5.444;2023-04-29T09:57:05;10.80;;;5.43;;
68718;SDS011;55696;52.138;5.444;2023-04-29T09:59:33;10.57;;;5.07;;
68718;SDS011;55696;52.138;5.444;2023-04-29T10:02:12;10.10;;;5.25;;
68718;SDS011;55696;52.138;5.444;2023-04-29T10:04:44;10.63;;;5.10;;
68718;SDS011;55696;52.138;5.444;2023-04-29T10:07:13;12.45;;;5.05;;
68718;SDS011;55696;52.138;5.444;2023-04-29T10:09:43;12.20;;;5.63;;
68718;SDS011;55696;52.138;5.444;2023-04-29T10:12:13;11.40;;;5.05;;
68718;SDS011;55696;52.138;5.444;2023-04-29T10:18:05;9.95;;;5.10;;
68718;SDS011;55696;52.138;5.444;2023-04-29T10:20:45;11.73;;;5.57;;
68718;SDS011;55696;52.138;5.444;2023-04-29T10:23:13;10.67;;;5.20;;
68718;SDS011;55696;52.138;5.444;2023-04-29T10:25:41;8.82;;;5.05;;
68718;SDS011;55696;52.138;5.444;2023-04-29T10:28:13;11.68;;;4.70;;
68718;SDS011;55696;52.138;5.444;2023-04-29T10:30:46;9.30;;;4.55;;
68718;SDS011;55696;52.138;5.444;2023-04-29T10:33:16;10.80;;;5.10;;
68718;SDS011;55696;52.138;5.444;2023-04-29T10:35:44;11.73;;;5.20;;
68718;SDS011;55696;52.138;5.444;2023-04-29T10:38:15;10.27;;;5.40;;
68718;SDS011;55696;52.138;5.444;2023-04-29T10:40:48;9.70;;;5.38;;
68718;SDS011;55696;52.138;5.444;2023-04-29T10:43:22;8.48;;;4.70;;
68718;SDS011;55696;52.138;5.444;2023-04-29T10:45:49;10.32;;;4.93;;
68718;SDS011;55696;52.138;5.444;2023-04-29T10:48:42;9.30;;;5.00;;
68718;SDS011;55696;52.138;5.444;2023-04-29T10:51:09;8.38;;;4.97;;
68718;SDS011;55696;52.138;5.444;2023-04-29T10:53:57;10.27;;;4.30;;
68718;SDS011;55696;52.138;5.444;2023-04-29T10:56:49;8.35;;;4.60;;
68718;SDS011;55696;52.138;5.444;2023-04-29T10:59:21;7.20;;;4.15;;
68718;SDS011;55696;52.138;5.444;2023-04-29T11:02:11;8.30;;;4.43;;
68718;SDS011;55696;52.138;5.444;2023-04-29T11:07:35;10.40;;;4.65;;
68718;SDS011;55696;52.138;5.444;2023-04-29T11:10:02;7.63;;;4.60;;
68718;SDS011;55696;52.138;5.444;2023-04-29T11:12:29;8.95;;;4.97;;
68718;SDS011;55696;52.138;5.444;2023-04-29T11:14:56;9.63;;;4.70;;
68718;SDS011;55696;52.138;5.444;2023-04-29T11:17:36;10.88;;;4.00;;
68718;SDS011;55696;52.138;5.444;2023-04-29T11:20:07;9.07;;;4.47;;
68718;SDS011;55696;52.138;5.444;2023-04-29T11:22:38;9.18;;;4.45;;
68718;SDS011;55696;52.138;5.444;2023-04-29T11:25:05;7.53;;;4.25;;
68718;SDS011;55696;52.138;5.444;2023-04-29T11:27:35;7.73;;;3.83;;
68718;SDS011;55696;52.138;5.444;2023-04-29T11:30:04;8.20;;;4.15;;
68718;SDS011;55696;52.138;5.444;2023-04-29T11:32:34;10.23;;;4.22;;
68718;SDS011;55696;52.138;5.444;2023-04-29T11:35:09;7.88;;;4.97;;
68718;SDS011;55696;52.138;5.444;2023-04-29T11:37:43;11.88;;;4.53;;
68718;SDS011;55696;52.138;5.444;2023-04-29T11:40:12;10.40;;;4.60;;
68718;SDS011;55696;52.138;5.444;2023-04-29T11:42:40;9.20;;;4.65;;
68718;SDS011;55696;52.138;5.444;2023-04-29T11:45:09;7.88;;;4.78;;
68718;SDS011;55696;52.138;5.444;2023-04-29T11:47:40;13.50;;;5.10;;
68718;SDS011;55696;52.138;5.444;2023-04-29T11:50:10;10.10;;;4.70;;
68718;SDS011;55696;52.138;5.444;2023-04-29T11:52:38;9.77;;;5.20;;
68718;SDS011;55696;52.138;5.444;2023-04-29T11:55:08;11.65;;;4.97;;
68718;SDS011;55696;52.138;5.444;2023-04-29T11:57:36;11.45;;;5.18;;
68718;SDS011;55696;52.138;5.444;2023-04-29T12:00:12;9.50;;;4.40;;
68718;SDS011;55696;52.138;5.444;2023-04-29T12:02:43;7.63;;;4.70;;
68718;SDS011;55696;52.138;5.444;2023-04-29T12:05:14;10.47;;;4.90;;
68718;SDS011;55696;52.138;5.444;2023-04-29T12:07:42;9.88;;;4.75;;
68718;SDS011;55696;52.138;5.444;2023-04-29T12:10:09;10.48;;;4.80;;
68718;SDS011;55696;52.138;5.444;2023-04-29T12:12:38;13.45;;;5.00;;
68718;SDS011;55696;52.138;5.444;2023-04-29T12:15:11;10.27;;;5.00;;
68718;SDS011;55696;52.138;5.444;2023-04-29T12:17:39;11.53;;;5.20;;
68718;SDS011;55696;52.138;5.444;2023-04-29T12:20:07;11.00;;;5.07;;
68718;SDS011;55696;52.138;5.444;2023-04-29T12:22:36;9.27;;;4.72;;
68718;SDS011;55696;52.138;5.444;2023-04-29T12:25:03;10.35;;;5.00;;
68718;SDS011;55696;52.138;5.444;2023-04-29T12:27:31;8.18;;;4.72;;
68718;SDS011;55696;52.138;5.444;2023-04-29T12:29:59;13.03;;;5.30;;
68718;SDS011;55696;52.138;5.444;2023-04-29T12:32:26;11.55;;;5.05;;
68718;SDS011;55696;52.138;5.444;2023-04-29T12:34:52;8.82;;;4.80;;
68718;SDS011;55696;52.138;5.444;2023-04-29T12:37:21;9.85;;;4.95;;
68718;SDS011;55696;52.138;5.444;2023-04-29T12:39:53;8.88;;;5.00;;
68718;SDS011;55696;52.138;5.444;2023-04-29T12:42:20;8.33;;;4.17;;
68718;SDS011;55696;52.138;5.444;2023-04-29T12:44:47;8.80;;;3.72;;
68718;SDS011;55696;52.138;5.444;2023-04-29T12:47:14;6.65;;;4.30;;
68718;SDS011;55696;52.138;5.444;2023-04-29T12:49:45;8.32;;;4.90;;
68718;SDS011;55696;52.138;5.444;2023-04-29T12:52:13;7.78;;;4.90;;
68718;SDS011;55696;52.138;5.444;2023-04-29T12:54:40;12.60;;;5.20;;
68718;SDS011;55696;52.138;5.444;2023-04-29T12:57:09;7.90;;;4.75;;
68718;SDS011;55696;52.138;5.444;2023-04-29T12:59:36;9.50;;;5.22;;
68718;SDS011;55696;52.138;5.444;2023-04-29T13:02:04;12.07;;;5.72;;
68718;SDS011;55696;52.138;5.444;2023-04-29T13:04:30;9.88;;;5.25;;
68718;SDS011;55696;52.138;5.444;2023-04-29T13:06:57;12.97;;;5.00;;
68718;SDS011;55696;52.138;5.444;2023-04-29T13:09:29;9.45;;;5.25;;
68718;SDS011;55696;52.138;5.444;2023-04-29T13:11:56;7.75;;;4.30;;
68718;SDS011;55696;52.138;5.444;2023-04-29T13:14:24;8.55;;;4.65;;
68718;SDS011;55696;52.138;5.444;2023-04-29T13:16:51;9.88;;;4.90;;
68718;SDS011;55696;52.138;5.444;2023-04-29T13:19:19;9.23;;;4.83;;
68718;SDS011;55696;52.138;5.444;2023-04-29T13:22:05;7.75;;;4.18;;
68718;SDS011;55696;52.138;5.444;2023-04-29T13:24:32;9.20;;;5.03;;
68718;SDS011;55696;52.138;5.444;2023-04-29T13:27:01;12.40;;;5.50;;
68718;SDS011;55696;52.138;5.444;2023-04-29T13:29:31;9.85;;;4.97;;
68718;SDS011;55696;52.138;5.444;2023-04-29T13:31:57;8.63;;;4.87;;
68718;SDS011;55696;52.138;5.444;2023-04-29T13:34:24;9.88;;;5.47;;
68718;SDS011;55696;52.138;5.444;2023-04-29T13:36:51;8.15;;;4.65;;
68718;SDS011;55696;52.138;5.444;2023-04-29T13:39:17;7.90;;;5.03;;
68718;SDS011;55696;52.138;5.444;2023-04-29T13:41:46;9.93;;;4.57;;
68718;SDS011;55696;52.138;5.444;2023-04-29T13:44:13;10.30;;;4.87;;
68718;SDS011;55696;52.138;5.444;2023-04-29T13:46:56;9.27;;;4.85;;
68718;SDS011;55696;52.138;5.444;2023-04-29T13:49:23;15.13;;;5.03;;
68718;SDS011;55696;52.138;5.444;2023-04-29T13:52:09;9.18;;;5.18;;
68718;SDS011;55696;52.138;5.444;2023-04-29T13:54:57;9.20;;;4.63;;
68718;SDS011;55696;52.138;5.444;2023-04-29T13:57:43;10.53;;;5.43;;
68718;SDS011;55696;52.138;5.444;2023-04-29T14:00:13;15.88;;;4.82;;
68718;SDS011;55696;52.138;5.444;2023-04-29T14:03:01;11.80;;;4.78;;
68718;SDS011;55696;52.138;5.444;2023-04-29T14:05:28;10.75;;;5.55;;
68718;SDS011;55696;52.138;5.444;2023-04-29T14:07:55;10.00;;;5.20;;
68718;SDS011;55696;52.138;5.444;2023-04-29T14:10:22;9.57;;;4.77;;
68718;SDS011;55696;52.138;5.444;2023-04-29T14:12:49;9.07;;;5.55;;
68718;SDS011;55696;52.138;5.444;2023-04-29T14:15:16;11.23;;;5.07;;
68718;SDS011;55696;52.138;5.444;2023-04-29T14:17:42;11.27;;;5.32;;
68718;SDS011;55696;52.138;5.444;2023-04-29T14:20:09;11.52;;;5.25;;
68718;SDS011;55696;52.138;5.444;2023-04-29T14:22:37;12.17;;;5.57;;
68718;SDS011;55696;52.138;5.444;2023-04-29T14:25:03;7.60;;;5.03;;
68718;SDS011;55696;52.138;5.444;2023-04-29T14:27:31;11.15;;;5.10;;
68718;SDS011;55696;52.138;5.444;2023-04-29T14:29:59;11.32;;;5.15;;
68718;SDS011;55696;52.138;5.444;2023-04-29T14:32:26;9.57;;;4.78;;
68718;SDS011;55696;52.138;5.444;2023-04-29T14:34:53;10.03;;;5.20;;
68718;SDS011;55696;52.138;5.444;2023-04-29T14:37:20;9.82;;;5.00;;
68718;SDS011;55696;52.138;5.444;2023-04-29T14:39:47;10.57;;;5.28;;
68718;SDS011;55696;52.138;5.444;2023-04-29T14:42:13;8.75;;;4.82;;
68718;SDS011;55696;52.138;5.444;2023-04-29T14:44:40;9.43;;;4.35;;
68718;SDS011;55696;52.138;5.444;2023-04-29T14:47:07;9.67;;;4.37;;
68718;SDS011;55696;52.138;5.444;2023-04-29T14:49:34;10.73;;;4.82;;
68718;SDS011;55696;52.138;5.444;2023-04-29T14:52:01;12.10;;;6.85;;
68718;SDS011;55696;52.138;5.444;2023-04-29T14:54:28;6.38;;;4.00;;
68718;SDS011;55696;52.138;5.444;2023-04-29T14:56:55;7.75;;;4.45;;
68718;SDS011;55696;52.138;5.444;2023-04-29T14:59:22;7.53;;;4.30;;
68718;SDS011;55696;52.138;5.444;2023-04-29T15:01:48;7.70;;;3.80;;
68718;SDS011;55696;52.138;5.444;2023-04-29T15:04:15;8.98;;;3.90;;
68718;SDS011;55696;52.138;5.444;2023-04-29T15:06:42;6.75;;;4.05;;
68718;SDS011;55696;52.138;5.444;2023-04-29T15:09:09;7.32;;;3.92;;